Time;durP1;ratioP1;P1;durP2;ratioP2;P2;SDS_P1;SDS_P2;PMS_P1;PMS_P2;Temp;Humidity;BMP_temperature;BMP_pressure;BME280_temperature;BME280_humidity;BME280_pressure;Samples;Min_cycle;Max_cycle;Signal;HPM_P1;HPM_P2
2022/08/22 00:01:31;;;;;;;6.93;2.78;;;21.30;99.90;;;;;;5079143;28;20673;-74
2022/08/22 00:04:13;;;;;;;8.30;3.03;;;21.40;99.90;;;;;;5079534;28;20032;-74
2022/08/22 00:06:49;;;;;;;5.95;2.65;;;;;;;;;;5080837;28;20033;-74
2022/08/22 00:10:05;;;;;;;5.90;2.55;;;21.50;99.90;;;;;;5078183;28;20039;-73
2022/08/22 00:12:57;;;;;;;6.55;2.70;;;21.60;99.90;;;;;;4967912;28;20027;-74
2022/08/22 00:15:36;;;;;;;6.43;2.65;;;21.50;99.90;;;;;;4982813;28;20081;-73
2022/08/22 00:18:36;;;;;;;7.03;3.17;;;21.60;99.90;;;;;;4983806;28;20023;-73
2022/08/22 00:21:28;;;;;;;5.28;2.47;;;21.60;99.90;;;;;;4907285;29;20083;-73
2022/08/22 00:24:21;;;;;;;6.00;2.72;;;21.60;99.90;;;;;;4909913;29;20021;-74
2022/08/22 00:26:50;;;;;;;8.25;2.92;;;21.90;99.90;;;;;;4908707;29;20556;-75
2022/08/22 00:29:23;;;;;;;7.63;2.60;;;21.40;99.90;;;;;;4926397;29;20668;-72
2022/08/22 00:32:10;;;;;;;7.32;2.70;;;21.40;99.90;;;;;;4930031;29;20060;-74
2022/08/22 00:34:47;;;;;;;9.65;3.45;;;21.30;99.90;;;;;;4928849;29;20028;-74
2022/08/22 00:37:27;;;;;;;6.50;2.53;;;21.20;99.90;;;;;;4925525;29;20040;-73
2022/08/22 00:40:25;;;;;;;7.07;2.75;;;21.50;99.90;;;;;;4925870;29;20037;-73
2022/08/22 00:43:00;;;;;;;6.72;2.90;;;21.10;99.90;;;;;;4920840;29;20037;-74
2022/08/22 00:45:28;;;;;;;8.30;3.60;;;21.10;99.90;;;;;;4918839;29;20048;-75
2022/08/22 00:47:57;;;;;;;5.30;2.50;;;21.00;99.90;;;;;;4962888;28;20031;-73
2022/08/22 00:50:41;;;;;;;4.22;1.95;;;21.10;99.90;;;;;;4986622;28;20027;-73
2022/08/22 00:53:16;;;;;;;8.13;3.88;;;21.10;99.90;;;;;;4982582;28;20047;-73
2022/08/22 00:56:07;;;;;;;7.60;3.50;;;21.20;99.90;;;;;;4980824;28;20043;-73
2022/08/22 00:58:51;;;;;;;6.88;3.13;;;21.20;99.90;;;;;;5039051;28;20029;-74
2022/08/22 01:01:25;;;;;;;5.30;2.67;;;20.80;99.90;;;;;;5057473;28;20040;-74
2022/08/22 01:04:14;;;;;;;6.80;3.15;;;20.90;99.90;;;;;;5057928;28;20036;-73
2022/08/22 01:07:01;;;;;;;5.82;2.92;;;20.90;99.90;;;;;;5038975;28;20089;-74
2022/08/22 01:09:45;;;;;;;7.03;3.00;;;20.90;99.90;;;;;;5058365;28;20139;-73
2022/08/22 01:12:31;;;;;;;6.53;3.00;;;20.90;99.90;;;;;;5057942;28;20041;-73
2022/08/22 01:15:09;;;;;;;5.72;2.65;;;20.90;99.90;;;;;;5072699;28;20028;-73
2022/08/22 01:18:00;;;;;;;9.35;3.60;;;20.90;99.90;;;;;;5041491;28;20020;-75
2022/08/22 01:21:03;;;;;;;5.95;3.00;;;20.90;99.90;;;;;;5086875;28;20031;-74
2022/08/22 01:23:56;;;;;;;7.27;3.70;;;20.90;99.90;;;;;;5087734;28;20031;-74
2022/08/22 01:26:59;;;;;;;7.20;3.15;;;20.80;99.90;;;;;;5062463;28;20032;-72
2022/08/22 01:29:42;;;;;;;6.63;2.55;;;20.80;99.90;;;;;;5059434;28;20029;-73
2022/08/22 01:32:27;;;;;;;9.02;3.35;;;20.70;99.90;;;;;;5080956;28;20009;-74
2022/08/22 01:35:02;;;;;;;5.78;2.13;;;20.70;99.90;;;;;;5084151;28;20021;-73
2022/08/22 01:38:11;;;;;;;4.95;2.53;;;20.90;99.90;;;;;;5081885;28;20012;-74
2022/08/22 01:40:57;;;;;;;7.82;2.88;;;20.90;99.90;;;;;;5020554;28;20063;-73
2022/08/22 01:43:56;;;;;;;5.80;2.47;;;18.60;99.90;;;;;;5061023;28;20646;-73
2022/08/22 01:47:02;;;;;;;5.88;2.60;;;20.80;99.90;;;;;;5076805;28;20009;-74
2022/08/22 01:49:33;;;;;;;6.03;2.50;;;21.10;99.90;;;;;;4995133;28;20022;-73
2022/08/22 01:52:07;;;;;;;8.00;3.05;;;20.80;99.90;;;;;;4997462;28;20073;-73
2022/08/22 01:54:57;;;;;;;6.25;3.05;;;21.10;99.90;;;;;;4996349;28;20034;-73
2022/08/22 01:57:25;;;;;;;7.38;2.75;;;20.70;99.90;;;;;;4971739;28;20045;-73
2022/08/22 01:59:56;;;;;;;6.70;2.97;;;24.20;99.90;;;;;;4959558;28;20047;-73
2022/08/22 02:02:39;;;;;;;7.60;3.17;;;20.70;99.90;;;;;;4978788;28;20039;-73
2022/08/22 02:05:15;;;;;;;6.18;3.10;;;20.80;99.90;;;;;;4968765;28;20030;-73
2022/08/22 02:07:53;;;;;;;7.70;3.70;;;20.90;99.90;;;;;;4998605;28;20050;-73
2022/08/22 02:10:40;;;;;;;8.75;3.92;;;21.00;99.90;;;;;;4997110;28;20733;-73
2022/08/22 02:13:35;;;;;;;6.15;3.08;;;20.50;99.90;;;;;;4997589;28;20030;-73
2022/08/22 02:16:16;;;;;;;7.78;3.13;;;19.60;99.90;;;;;;4996126;28;20018;-73
2022/08/22 02:18:49;;;;;;;10.25;2.72;;;19.50;99.90;;;;;;4965105;28;20023;-74
2022/08/22 02:21:39;;;;;;;6.90;2.58;;;19.30;99.90;;;;;;4966682;28;20090;-73
2022/08/22 02:24:20;;;;;;;5.93;2.30;;;19.50;99.90;;;;;;5048908;28;20040;-73
2022/08/22 02:27:10;;;;;;;5.82;2.53;;;19.50;99.90;;;;;;5047040;28;20178;-74
2022/08/22 02:30:13;;;;;;;6.85;2.58;;;19.40;99.90;;;;;;5047950;28;20025;-74
2022/08/22 02:32:47;;;;;;;5.43;2.15;;;19.90;99.90;;;;;;5066981;28;20088;-74
2022/08/22 02:35:22;;;;;;;6.30;2.72;;;19.30;99.90;;;;;;5043665;28;20052;-76
2022/08/22 02:38:24;;;;;;;7.38;2.65;;;19.50;99.90;;;;;;5057303;28;20718;-78
2022/08/22 02:41:12;;;;;;;5.55;2.08;;;19.80;99.90;;;;;;5029194;28;20028;-83
2022/08/22 02:43:47;;;;;;;5.90;2.30;;;19.90;99.90;;;;;;5060571;28;20056;-83
2022/08/22 02:46:25;;;;;;;6.78;2.22;;;17.10;99.90;;;;;;5055525;28;20021;-78
2022/08/22 02:49:12;;;;;;;6.35;2.05;;;17.00;99.90;;;;;;5060956;28;20013;-78
2022/08/22 02:51:38;;;;;;;4.43;1.73;;;;;;;;;;5074194;28;20140;-75
2022/08/22 02:54:25;;;;;;;6.25;2.13;;;20.20;99.90;;;;;;5045225;28;20100;-75
2022/08/22 02:57:01;;;;;;;6.10;2.25;;;20.30;99.90;;;;;;5070518;28;20107;-85
2022/08/22 02:59:32;;;;;;;4.32;1.27;;;20.50;99.90;;;;;;5045892;28;20577;-87
2022/08/22 03:02:28;;;;;;;4.20;1.50;;;18.20;99.90;;;;;;5039704;28;20029;-85
2022/08/22 03:04:58;;;;;;;2.25;1.30;;;19.40;99.90;;;;;;5039811;28;20020;-82
2022/08/22 03:07:33;;;;;;;4.28;1.48;;;19.00;99.90;;;;;;5040362;28;20023;-90
2022/08/22 03:10:17;;;;;;;4.05;1.83;;;18.60;99.90;;;;;;5022685;28;20557;-85
2022/08/22 03:13:08;;;;;;;6.88;1.90;;;18.20;99.90;;;;;;5023013;28;20035;-83
2022/08/22 03:16:03;;;;;;;2.60;1.30;;;17.80;99.90;;;;;;5040702;28;20702;-82
2022/08/22 03:18:51;;;;;;;5.22;1.92;;;17.80;99.90;;;;;;5042186;28;20036;-84
2022/08/22 03:21:22;;;;;;;4.65;1.90;;;17.70;99.90;;;;;;5060445;28;20426;-83
2022/08/22 03:24:00;;;;;;;5.03;2.13;;;17.60;99.90;;;;;;5060200;28;20623;-81
2022/08/22 03:27:09;;;;;;;3.47;1.25;;;17.40;99.90;;;;;;5059155;28;20075;-86
2022/08/22 03:29:46;;;;;;;4.70;1.83;;;17.40;99.90;;;;;;4962099;28;20045;-84
2022/08/22 03:32:16;;;;;;;6.35;2.50;;;16.90;99.90;;;;;;4978057;28;20078;-78
2022/08/22 03:34:59;;;;;;;5.75;2.60;;;17.40;99.90;;;;;;4968200;28;20042;-77
2022/08/22 03:37:36;;;;;;;6.07;2.55;;;16.30;99.90;;;;;;4941831;28;20034;-81
2022/08/22 03:40:30;;;;;;;5.07;2.28;;;17.20;99.90;;;;;;4977666;28;20504;-83
2022/08/22 03:43:43;;;;;;;7.53;2.20;;;17.20;99.90;;;;;;4979155;28;20026;-81
2022/08/22 03:46:45;;;;;;;7.45;2.50;;;17.20;99.90;;;;;;4962029;28;20682;-81
2022/08/22 03:49:11;;;;;;;6.80;2.88;;;17.20;99.90;;;;;;4962631;28;20560;-79
2022/08/22 03:51:37;;;;;;;6.38;2.03;;;;;;;;;;4964083;28;20019;-89
2022/08/22 03:54:15;;;;;;;6.05;2.55;;;17.20;99.90;;;;;;4943548;28;20081;-79
2022/08/22 03:57:08;;;;;;;9.27;2.72;;;17.10;99.90;;;;;;4958647;28;20019;-76
2022/08/22 03:59:42;;;;;;;6.88;2.97;;;17.10;99.90;;;;;;4958462;28;20187;-82
2022/08/22 04:02:18;;;;;;;6.65;2.70;;;17.10;99.90;;;;;;4958308;28;20039;-81
2022/08/22 04:04:56;;;;;;;8.48;3.20;;;17.10;99.90;;;;;;4941694;28;20540;-76
2022/08/22 04:08:00;;;;;;;9.82;3.42;;;17.10;99.90;;;;;;4972735;28;20773;-84
2022/08/22 04:10:50;;;;;;;10.25;3.78;;;17.10;99.90;;;;;;4980117;28;20025;-77
2022/08/22 04:13:58;;;;;;;9.48;4.25;;;17.10;99.90;;;;;;4995903;28;20058;-76
2022/08/22 04:16:36;;;;;;;9.07;3.90;;;17.20;99.90;;;;;;4996082;28;20018;-78
2022/08/22 04:19:32;;;;;;;9.35;4.20;;;17.10;99.90;;;;;;5000216;28;20030;-85
2022/08/22 04:22:32;;;;;;;9.82;4.40;;;17.10;99.90;;;;;;5021679;28;20041;-84
2022/08/22 04:25:22;;;;;;;11.07;5.03;;;17.10;99.90;;;;;;5037886;28;20031;-76
2022/08/22 04:27:59;;;;;;;10.77;5.15;;;17.10;99.90;;;;;;5020276;28;20595;-74
2022/08/22 04:30:33;;;;;;;11.27;5.93;;;17.10;99.90;;;;;;5020640;28;20021;-74
2022/08/22 04:33:18;;;;;;;;;;;17.10;99.90;;;;;;5021753;28;20106;-79
2022/08/22 04:35:56;;;;;;;13.95;5.93;;;17.10;99.90;;;;;;5038647;28;19939;-80
2022/08/22 04:39:01;;;;;;;12.82;5.18;;;17.10;99.90;;;;;;5034387;28;20688;-86
2022/08/22 04:41:36;;;;;;;12.75;5.22;;;17.10;99.90;;;;;;5057120;28;20659;-75
2022/08/22 04:44:14;;;;;;;12.60;5.88;;;17.10;99.90;;;;;;5058117;28;20025;-81
2022/08/22 04:46:40;;;;;;;11.45;5.43;;;17.10;99.90;;;;;;5044325;28;20049;-80
2022/08/22 04:49:20;;;;;;;13.18;6.40;;;17.60;99.90;;;;;;5038316;28;20060;-83
2022/08/22 04:52:08;;;;;;;11.18;5.50;;;17.00;99.90;;;;;;5020693;28;20017;-87
2022/08/22 04:55:06;;;;;;;11.35;5.25;;;17.20;99.90;;;;;;5021152;28;20033;-78
2022/08/22 04:58:05;;;;;;;11.52;5.03;;;17.10;99.90;;;;;;5039087;28;20032;-85
2022/08/22 05:00:56;;;;;;;12.32;5.50;;;17.10;99.90;;;;;;5042149;28;20017;-79
2022/08/22 05:03:25;;;;;;;10.63;5.35;;;17.10;99.90;;;;;;5043880;28;20123;-74
2022/08/22 05:05:54;;;;;;;11.85;5.07;;;17.00;99.90;;;;;;5042820;28;20029;-84
2022/08/22 05:08:25;;;;;;;11.82;4.82;;;17.10;99.90;;;;;;5042641;28;20017;-82
2022/08/22 05:10:53;;;;;;;15.07;6.07;;;17.20;99.90;;;;;;5043063;28;20092;-82
2022/08/22 05:13:31;;;;;;;14.10;6.25;;;17.10;99.90;;;;;;5043024;28;20021;-81
2022/08/22 05:16:04;;;;;;;14.82;7.28;;;17.00;99.90;;;;;;5025019;28;20032;-85
2022/08/22 05:18:35;;;;;;;13.30;5.88;;;17.00;99.90;;;;;;5050922;28;20033;-89
2022/08/22 05:21:05;;;;;;;13.85;6.30;;;17.00;99.90;;;;;;5062264;28;20028;-79
2022/08/22 05:23:43;;;;;;;13.45;6.63;;;17.10;99.90;;;;;;5064470;28;20020;-82
2022/08/22 05:26:12;;;;;;;12.55;6.15;;;17.20;99.90;;;;;;5048265;28;20518;-91
2022/08/22 05:28:51;;;;;;;10.85;5.45;;;17.20;99.90;;;;;;5041851;28;20045;-76
2022/08/22 05:31:33;;;;;;;13.43;6.15;;;17.30;99.90;;;;;;5046788;28;20615;-74
2022/08/22 05:34:05;;;;;;;15.75;6.13;;;17.30;99.90;;;;;;5054042;28;20095;-82
2022/08/22 05:36:38;;;;;;;14.32;5.75;;;17.30;99.90;;;;;;5050803;28;20078;-85
2022/08/22 05:39:13;;;;;;;15.45;6.07;;;17.40;99.90;;;;;;5029302;28;20021;-76
2022/08/22 05:41:40;;;;;;;11.32;6.10;;;17.40;99.90;;;;;;5027695;28;20037;-84
2022/08/22 05:44:16;;;;;;;11.95;5.35;;;17.50;99.90;;;;;;5045692;28;20720;-81
2022/08/22 05:46:47;;;;;;;12.20;5.47;;;17.50;99.90;;;;;;5027577;28;20017;-87
2022/08/22 05:49:37;;;;;;;13.35;5.57;;;17.50;99.90;;;;;;5043330;28;20025;-79
2022/08/22 05:52:41;;;;;;;11.02;5.55;;;17.40;99.90;;;;;;5031980;28;20045;-86
2022/08/22 05:55:28;;;;;;;9.93;4.63;;;17.40;99.90;;;;;;5024997;28;20044;-85
2022/08/22 05:58:22;;;;;;;12.65;6.07;;;17.40;99.90;;;;;;5042909;28;20282;-82
2022/08/22 06:00:55;;;;;;;10.65;4.82;;;17.40;99.90;;;;;;5042616;28;20519;-75
2022/08/22 06:03:35;;;;;;;18.95;6.40;;;17.40;99.90;;;;;;5043772;28;20025;-76
2022/08/22 06:06:10;;;;;;;11.45;5.30;;;17.40;99.90;;;;;;5044071;28;20515;-77
2022/08/22 06:08:40;;;;;;;13.30;6.10;;;17.40;99.90;;;;;;5033328;28;20025;-79
2022/08/22 06:11:19;;;;;;;12.65;5.88;;;17.50;99.90;;;;;;5046024;28;20112;-78
2022/08/22 06:14:12;;;;;;;10.70;5.55;;;17.50;99.90;;;;;;5074460;28;20087;-75
2022/08/22 06:16:53;;;;;;;13.75;5.60;;;17.50;99.90;;;;;;4975783;28;20560;-87
2022/08/22 06:19:19;;;;;;;12.55;4.93;;;17.50;99.90;;;;;;4988124;28;20098;-85
2022/08/22 06:21:49;;;;;;;11.55;5.32;;;17.50;99.90;;;;;;4987433;28;20069;-78
2022/08/22 06:24:23;;;;;;;14.48;6.88;;;17.50;99.90;;;;;;4989081;28;20030;-79
2022/08/22 06:26:52;;;;;;;13.32;6.07;;;17.50;99.90;;;;;;4952828;28;20125;-88
2022/08/22 06:29:32;;;;;;;13.23;6.05;;;17.50;99.90;;;;;;4969491;28;20048;-85
2022/08/22 06:32:01;;;;;;;11.25;5.15;;;17.40;99.90;;;;;;4964558;28;20827;-92
2022/08/22 06:34:36;;;;;;;10.18;4.30;;;17.40;99.90;;;;;;4966782;28;20405;-88
2022/08/22 06:37:06;;;;;;;11.55;5.43;;;17.50;99.90;;;;;;4967840;28;20243;-82
2022/08/22 06:39:38;;;;;;;13.25;5.28;;;17.50;99.90;;;;;;4968686;28;20031;-85
2022/08/22 06:42:27;;;;;;;12.90;5.53;;;17.90;99.90;;;;;;4968815;28;20041;-85
2022/08/22 06:45:15;;;;;;;12.13;5.72;;;17.70;99.90;;;;;;4968973;28;20031;-79
2022/08/22 06:48:05;;;;;;;12.55;5.70;;;17.80;99.90;;;;;;4983966;28;20133;-83
2022/08/22 06:50:38;;;;;;;8.43;4.07;;;18.60;99.90;;;;;;4982401;28;20102;-88
2022/08/22 06:53:04;;;;;;;10.18;5.35;;;21.20;99.90;;;;;;5000709;28;20136;-81
2022/08/22 06:55:31;;;;;;;9.57;4.32;;;18.10;99.90;;;;;;5047046;28;20114;-86
2022/08/22 06:58:02;;;;;;;13.18;5.60;;;18.10;99.90;;;;;;5067992;28;20115;-89
2022/08/22 07:00:32;;;;;;;10.27;4.65;;;18.20;99.90;;;;;;5049311;28;20039;-86
2022/08/22 07:03:11;;;;;;;12.00;3.83;;;18.30;99.90;;;;;;5069932;28;20037;-78
2022/08/22 07:05:41;;;;;;;10.90;4.63;;;18.40;99.90;;;;;;5031068;28;20063;-80
2022/08/22 07:08:12;;;;;;;9.38;4.03;;;18.40;99.90;;;;;;5043373;28;20079;-75
2022/08/22 07:11:03;;;;;;;9.15;4.03;;;18.40;99.90;;;;;;5045042;28;20075;-89
2022/08/22 07:13:30;;;;;;;8.60;3.55;;;18.60;99.90;;;;;;4953718;28;20031;-86
2022/08/22 07:16:01;;;;;;;9.52;4.15;;;18.60;99.90;;;;;;4979797;28;20041;-82
2022/08/22 07:18:30;;;;;;;9.10;4.25;;;18.70;99.90;;;;;;4989054;28;20073;-80
2022/08/22 07:21:01;;;;;;;8.65;3.22;;;18.70;99.90;;;;;;4971044;28;20098;-84
2022/08/22 07:23:35;;;;;;;7.90;3.42;;;18.70;99.90;;;;;;4965850;28;20039;-77
2022/08/22 07:26:14;;;;;;;8.73;3.95;;;18.70;99.90;;;;;;4983288;28;20034;-84
2022/08/22 07:28:50;;;;;;;8.05;3.38;;;18.70;99.90;;;;;;5005961;28;20058;-79
2022/08/22 07:31:36;;;;;;;9.07;4.00;;;18.80;99.90;;;;;;5002384;28;20126;-88
2022/08/22 07:34:12;;;;;;;10.35;3.13;;;18.70;99.90;;;;;;4984307;28;20022;-75
2022/08/22 07:36:38;;;;;;;7.43;3.80;;;18.80;99.90;;;;;;4981066;28;20189;-89
2022/08/22 07:39:12;;;;;;;9.27;3.45;;;18.80;99.90;;;;;;4997264;28;20193;-75
2022/08/22 07:41:56;;;;;;;10.07;3.72;;;18.80;99.90;;;;;;5011668;28;20049;-83
2022/08/22 07:44:28;;;;;;;9.32;4.35;;;19.30;99.90;;;;;;5015364;28;20118;-82
2022/08/22 07:47:06;;;;;;;6.68;3.15;;;19.20;99.90;;;;;;4985435;28;20018;-77
2022/08/22 07:49:42;;;;;;;6.30;2.75;;;19.00;99.90;;;;;;5005126;28;20057;-87
2022/08/22 07:52:12;;;;;;;10.73;2.72;;;18.70;99.90;;;;;;5044127;28;20017;-76
2022/08/22 07:55:02;;;;;;;7.22;2.83;;;18.70;99.90;;;;;;5039385;28;20703;-81
2022/08/22 07:57:33;;;;;;;6.15;2.80;;;18.80;99.90;;;;;;5021142;28;20029;-80
2022/08/22 08:00:03;;;;;;;8.10;3.13;;;18.80;99.90;;;;;;5023500;28;20088;-78
2022/08/22 08:02:29;;;;;;;7.32;3.20;;;18.70;99.90;;;;;;5025481;28;20238;-86
2022/08/22 08:04:59;;;;;;;5.45;2.75;;;19.00;99.90;;;;;;5020684;28;20075;-88
2022/08/22 08:07:31;;;;;;;8.93;2.58;;;19.20;99.90;;;;;;5020852;28;20041;-89
2022/08/22 08:10:05;;;;;;;6.85;2.60;;;19.60;99.90;;;;;;5024280;28;20041;-81
2022/08/22 08:12:37;;;;;;;7.53;3.60;;;19.90;99.90;;;;;;5041468;28;20025;-75
2022/08/22 08:15:07;;;;;;;9.38;2.85;;;20.00;99.90;;;;;;5023659;28;20017;-82
2022/08/22 08:17:35;;;;;;;7.00;2.88;;;20.10;99.90;;;;;;5037677;28;20025;-86
2022/08/22 08:20:13;;;;;;;7.75;2.95;;;20.00;99.90;;;;;;5044481;28;20009;-92
2022/08/22 08:22:42;;;;;;;7.47;3.15;;;20.20;99.90;;;;;;5040791;28;20668;-85
2022/08/22 08:25:14;;;;;;;7.00;3.05;;;20.00;99.90;;;;;;5039564;28;20103;-75
2022/08/22 08:30:42;;;;;;;7.38;3.13;;;19.10;99.90;;;;;;5059612;28;20078;-85
2022/08/22 08:33:15;;;;;;;8.82;3.63;;;20.40;99.90;;;;;;5078038;28;20021;-84
2022/08/22 08:35:46;;;;;;;7.88;3.97;;;20.30;99.90;;;;;;5064173;28;20020;-74
2022/08/22 08:38:17;;;;;;;8.68;3.72;;;20.50;99.90;;;;;;5067042;28;20024;-82
2022/08/22 08:41:06;;;;;;;6.15;2.47;;;20.80;99.90;;;;;;5082145;28;20044;-82
2022/08/22 08:43:41;;;;;;;6.72;2.80;;;23.20;99.90;;;;;;5069328;28;20090;-79
2022/08/22 08:46:24;;;;;;;6.95;3.13;;;20.90;99.90;;;;;;5065996;28;20009;-85
2022/08/22 08:48:50;;;;;;;7.53;3.03;;;21.10;99.90;;;;;;5066157;28;20016;-77
2022/08/22 08:51:59;;;;;;;7.63;3.03;;;21.30;99.90;;;;;;5064434;28;20040;-81
2022/08/22 08:54:48;;;;;;;8.50;2.95;;;21.40;99.90;;;;;;4987543;28;20073;-85
2022/08/22 08:57:32;;;;;;;5.25;2.63;;;21.30;99.90;;;;;;4964675;28;20035;-82
2022/08/22 09:00:16;;;;;;;7.45;2.80;;;21.60;99.90;;;;;;4962715;28;20081;-76
2022/08/22 09:03:25;;;;;;;7.10;3.03;;;21.30;99.90;;;;;;4981946;28;20108;-75
2022/08/22 09:06:01;;;;;;;5.43;2.38;;;21.80;99.90;;;;;;4981937;28;20033;-86
2022/08/22 09:08:51;;;;;;;7.88;2.03;;;21.30;99.90;;;;;;5007207;28;20744;-85
2022/08/22 09:11:29;;;;;;;6.30;2.20;;;20.80;99.90;;;;;;5009475;28;20034;-82
2022/08/22 09:14:18;;;;;;;5.07;2.40;;;18.80;99.90;;;;;;5002001;28;20047;-86
2022/08/22 09:17:28;;;;;;;6.10;2.70;;;21.10;99.90;;;;;;5000786;28;20460;-81
2022/08/22 09:19:56;;;;;;;4.50;2.10;;;21.10;99.90;;;;;;4923759;29;20044;-81
2022/08/22 09:23:02;;;;;;;6.65;2.53;;;21.30;99.90;;;;;;4923354;29;20055;-75
2022/08/22 09:25:41;;;;;;;5.65;2.25;;;21.20;99.90;;;;;;4923523;29;20039;-78
2022/08/22 09:28:28;;;;;;;5.18;2.22;;;21.30;99.90;;;;;;4911240;29;20051;-83
2022/08/22 09:31:26;;;;;;;4.13;1.90;;;21.60;99.90;;;;;;4927652;28;20034;-79
2022/08/22 09:33:53;;;;;;;3.78;1.77;;;;;;;;;;4964913;28;20050;-79
2022/08/22 09:36:26;;;;;;;4.55;1.90;;;21.80;99.90;;;;;;4965510;28;20082;-79
2022/08/22 09:39:08;;;;;;;5.10;2.53;;;21.80;99.90;;;;;;4965887;28;20038;-82
2022/08/22 09:41:51;;;;;;;4.70;1.90;;;22.00;99.90;;;;;;4951241;28;20073;-79
2022/08/22 09:44:40;;;;;;;;;;;22.60;99.90;;;;;;4973478;28;20781;-76
2022/08/22 09:47:11;;;;;;;5.63;2.00;;;22.20;99.90;;;;;;4953494;29;19922;-80
2022/08/22 09:50:11;;;;;;;3.80;1.77;;;22.50;99.90;;;;;;4950328;28;20026;-83
2022/08/22 09:53:04;;;;;;;3.40;1.27;;;22.50;99.90;;;;;;4993555;28;20106;-82
2022/08/22 09:55:45;;;;;;;6.75;2.15;;;23.40;99.90;;;;;;4992564;28;20081;-83
2022/08/22 09:58:42;;;;;;;3.83;1.67;;;25.60;99.90;;;;;;4994079;28;20034;-81
2022/08/22 10:01:31;;;;;;;6.30;2.00;;;23.40;99.90;;;;;;5009148;28;20018;-77
2022/08/22 10:04:29;;;;;;;5.18;1.98;;;23.20;99.90;;;;;;4945327;29;20041;-85
2022/08/22 10:07:22;;;;;;;7.28;2.58;;;23.60;99.90;;;;;;4928398;29;20530;-79
2022/08/22 10:10:14;;;;;;;5.78;1.63;;;23.80;99.90;;;;;;4943921;29;20095;-84
2022/08/22 10:13:16;;;;;;;5.40;2.13;;;23.80;99.90;;;;;;4940102;29;20039;-77
2022/08/22 10:15:49;;;;;;;5.97;2.33;;;23.70;99.90;;;;;;4928433;29;20075;-81
2022/08/22 10:18:44;;;;;;;3.97;1.58;;;23.50;99.90;;;;;;4939899;28;20039;-77
2022/08/22 10:21:19;;;;;;;5.47;2.25;;;23.80;99.90;;;;;;4901755;29;20066;-75
2022/08/22 10:23:47;;;;;;;5.28;2.05;;;23.30;99.90;;;;;;4913532;29;20065;-76
2022/08/22 10:26:29;;;;;;;4.25;1.80;;;23.20;99.90;;;;;;4928894;29;20032;-77
2022/08/22 10:29:06;;;;;;;5.88;2.28;;;23.10;99.90;;;;;;4939301;29;20046;-75
2022/08/22 10:31:38;;;;;;;6.38;1.77;;;23.00;99.90;;;;;;4932532;29;20040;-76
2022/08/22 10:34:15;;;;;;;4.07;1.17;;;23.10;99.90;;;;;;4936096;29;20035;-76
2022/08/22 10:37:18;;;;;;;5.80;1.52;;;22.90;99.90;;;;;;4935963;29;20043;-76
2022/08/22 10:40:01;;;;;;;4.47;1.67;;;24.30;99.90;;;;;;4932604;29;20036;-74
2022/08/22 10:42:45;;;;;;;3.92;1.83;;;22.60;99.90;;;;;;4950040;28;20039;-75
2022/08/22 10:45:28;;;;;;;4.43;2.05;;;22.60;99.90;;;;;;4949323;28;20023;-74
2022/08/22 10:47:59;;;;;;;2.58;1.27;;;19.70;99.90;;;;;;4940195;29;20047;-74
2022/08/22 10:50:36;;;;;;;2.15;1.25;;;23.00;99.90;;;;;;4953350;28;20027;-82
2022/08/22 10:53:45;;;;;;;3.20;1.02;;;22.60;99.90;;;;;;4946375;28;20027;-75
2022/08/22 10:56:22;;;;;;;2.58;1.00;;;22.40;99.90;;;;;;4947094;28;20024;-75
2022/08/22 10:59:00;;;;;;;2.05;0.88;;;22.40;99.90;;;;;;5016848;28;20028;-89
2022/08/22 11:01:31;;;;;;;3.67;1.15;;;22.40;99.90;;;;;;5035159;28;20014;-77
2022/08/22 11:04:00;;;;;;;1.92;1.13;;;22.30;99.90;;;;;;5031791;28;20637;-79
2022/08/22 11:06:47;;;;;;;1.65;0.82;;;22.50;99.90;;;;;;5032809;28;20077;-89
2022/08/22 11:09:25;;;;;;;1.52;0.70;;;22.60;99.90;;;;;;5035111;28;20051;-85
2022/08/22 11:12:02;;;;;;;2.15;0.70;;;22.60;99.90;;;;;;5014878;28;20025;-77
2022/08/22 11:15:06;;;;;;;2.42;0.75;;;22.60;99.90;;;;;;5053871;28;20092;-75
2022/08/22 11:18:13;;;;;;;1.77;0.90;;;22.60;99.90;;;;;;5057878;28;20013;-75
2022/08/22 11:20:48;;;;;;;1.92;0.75;;;22.80;99.90;;;;;;5044730;28;20226;-82
2022/08/22 11:23:36;;;;;;;3.10;1.20;;;22.90;99.90;;;;;;5050156;28;20044;-82
2022/08/22 11:26:38;;;;;;;4.05;1.33;;;23.10;99.90;;;;;;5052466;28;20038;-85
2022/08/22 11:29:03;;;;;;;2.55;1.20;;;23.10;99.90;;;;;;5030530;28;20675;-78
2022/08/22 11:31:44;;;;;;;3.30;1.25;;;23.10;99.90;;;;;;5052745;28;20044;-74
2022/08/22 11:34:22;;;;;;;1.73;0.80;;;23.30;99.90;;;;;;5036668;28;20029;-74
2022/08/22 11:36:58;;;;;;;3.75;1.23;;;23.50;99.70;;;;;;5054756;28;20041;-75
2022/08/22 11:39:46;;;;;;;3.47;0.90;;;24.10;99.40;;;;;;5052937;28;20024;-76
2022/08/22 11:42:14;;;;;;;2.17;0.90;;;25.10;98.60;;;;;;5050475;28;20120;-83
2022/08/22 11:44:49;;;;;;;2.40;1.10;;;24.10;97.50;;;;;;5052335;28;20079;-76
2022/08/22 11:47:19;;;;;;;2.25;0.93;;;24.10;97.50;;;;;;5031974;28;20013;-74
2022/08/22 11:49:54;;;;;;;2.28;1.08;;;25.00;97.00;;;;;;5033650;28;20017;-75
2022/08/22 11:52:28;;;;;;;1.83;0.90;;;25.20;94.50;;;;;;5032130;28;20155;-75
2022/08/22 11:55:16;;;;;;;2.92;1.10;;;25.10;94.90;;;;;;5043900;28;20028;-74
2022/08/22 11:57:46;;;;;;;2.22;0.98;;;26.00;94.60;;;;;;5027376;28;20607;-79
2022/08/22 12:00:19;;;;;;;2.90;1.02;;;26.40;93.60;;;;;;5037802;28;20022;-76
2022/08/22 12:03:00;;;;;;;;;;;26.80;93.40;;;;;;5013709;28;20097;-74
2022/08/22 12:05:33;;;;;;;1.60;0.70;;;26.70;92.20;;;;;;5029152;28;19940;-75
2022/08/22 12:08:11;;;;;;;3.10;1.10;;;27.40;91.70;;;;;;5033088;28;20070;-77
2022/08/22 12:11:06;;;;;;;3.60;1.00;;;27.60;90.60;;;;;;5037078;28;20013;-84
2022/08/22 12:13:50;;;;;;;1.38;0.90;;;27.60;89.60;;;;;;5017056;28;20105;-83
2022/08/22 12:16:48;;;;;;;2.00;1.10;;;27.40;88.00;;;;;;5012487;28;20061;-75
2022/08/22 12:19:40;;;;;;;2.80;1.27;;;27.40;89.20;;;;;;5029969;28;20013;-79
2022/08/22 12:22:56;;;;;;;4.88;1.50;;;27.10;86.90;;;;;;5043306;28;20029;-75
2022/08/22 12:25:22;;;;;;;2.53;1.23;;;27.10;87.70;;;;;;4944456;28;20142;-83
2022/08/22 12:28:15;;;;;;;2.78;1.23;;;29.80;90.20;;;;;;4951024;29;20075;-86
2022/08/22 12:30:59;;;;;;;2.47;1.30;;;27.20;87.10;;;;;;4944590;29;20020;-86
2022/08/22 12:33:48;;;;;;;4.10;1.70;;;27.50;87.10;;;;;;4946328;28;20567;-74
2022/08/22 12:36:41;;;;;;;1.42;1.00;;;27.40;84.50;;;;;;4944727;28;20039;-85
2022/08/22 12:39:45;;;;;;;2.78;1.23;;;27.40;85.10;;;;;;4950223;28;20038;-83
2022/08/22 12:42:27;;;;;;;2.42;1.20;;;27.60;84.90;;;;;;4942133;28;20051;-79
2022/08/22 12:45:15;;;;;;;2.88;1.50;;;26.40;87.10;;;;;;4938644;28;20103;-79
2022/08/22 12:47:41;;;;;;;2.40;1.45;;;;;;;;;;4933280;29;20209;-74
2022/08/22 12:50:25;;;;;;;2.17;1.13;;;26.10;89.20;;;;;;4942482;29;20027;-81
2022/08/22 12:53:00;;;;;;;2.78;1.20;;;26.10;88.80;;;;;;4949003;28;20057;-90
2022/08/22 12:55:58;;;;;;;2.50;1.10;;;27.00;87.90;;;;;;4944052;28;20055;-80
2022/08/22 12:58:47;;;;;;;2.17;1.05;;;26.90;85.00;;;;;;4937207;28;20027;-83
2022/08/22 13:01:14;;;;;;;3.05;1.40;;;27.00;85.70;;;;;;4979503;28;20051;-87
2022/08/22 13:03:48;;;;;;;2.03;1.30;;;28.10;84.90;;;;;;5029718;28;20156;-73
2022/08/22 13:06:41;;;;;;;1.10;0.90;;;28.80;81.70;;;;;;5012706;28;20611;-78
2022/08/22 13:09:26;;;;;;;2.08;1.30;;;28.60;80.20;;;;;;5028704;28;20026;-76
2022/08/22 13:12:24;;;;;;;3.35;1.20;;;29.40;79.70;;;;;;5025454;28;20021;-74
2022/08/22 13:15:24;;;;;;;2.83;1.10;;;29.00;79.70;;;;;;5017875;28;20029;-82
2022/08/22 13:18:05;;;;;;;3.35;0.80;;;29.50;78.60;;;;;;5013333;28;20028;-80
2022/08/22 13:20:43;;;;;;;3.17;1.20;;;30.00;76.50;;;;;;5033231;28;20013;-82
2022/08/22 13:23:18;;;;;;;3.65;1.20;;;29.70;77.30;;;;;;5030376;28;20029;-80
2022/08/22 13:26:03;;;;;;;2.15;0.90;;;29.30;76.40;;;;;;5045718;28;20025;-78
2022/08/22 13:28:32;;;;;;;2.35;1.10;;;28.00;77.30;;;;;;5031862;28;20207;-76
2022/08/22 13:31:02;;;;;;;1.77;0.65;;;29.00;78.80;;;;;;5026951;28;20188;-76
2022/08/22 13:33:34;;;;;;;1.58;0.98;;;28.40;80.80;;;;;;5034826;28;20020;-85
2022/08/22 13:36:08;;;;;;;1.40;0.93;;;27.50;80.80;;;;;;5036197;28;20029;-76
2022/08/22 13:38:57;;;;;;;1.33;0.82;;;27.40;81.30;;;;;;5027646;28;20035;-75
2022/08/22 13:41:32;;;;;;;2.00;0.77;;;27.80;83.20;;;;;;5048494;28;20068;-75
2022/08/22 13:43:58;;;;;;;2.30;0.90;;;27.90;83.20;;;;;;5051304;28;20029;-75
2022/08/22 13:46:29;;;;;;;2.92;1.10;;;28.00;82.10;;;;;;5050824;28;20020;-75
2022/08/22 13:49:03;;;;;;;2.33;1.02;;;27.60;84.30;;;;;;5051482;28;20677;-74
2022/08/22 13:51:49;;;;;;;2.15;0.90;;;27.70;83.30;;;;;;5056056;28;20028;-77
2022/08/22 13:54:14;;;;;;;2.53;1.00;;;28.50;84.80;;;;;;5035818;28;20532;-75
2022/08/22 13:57:04;;;;;;;1.85;0.95;;;28.10;83.80;;;;;;5050874;28;20123;-74
2022/08/22 13:59:38;;;;;;;1.70;0.90;;;28.50;81.80;;;;;;5058335;28;20021;-75
2022/08/22 14:02:41;;;;;;;2.25;0.93;;;28.60;83.60;;;;;;5055910;28;20793;-75
2022/08/22 14:05:16;;;;;;;2.33;1.08;;;29.80;80.90;;;;;;5056724;28;20025;-74